sensor_id;sensor_type;location;lat;lon;timestamp;P1;durP1;ratioP1;P2;durP2;ratioP2
41755;SDS011;27435;48.480;9.258;2023-05-23T00:02:24;20.80;;;13.38;;
41755;SDS011;27435;48.480;9.258;2023-05-23T00:04:49;19.83;;;14.10;;
41755;SDS011;27435;48.480;9.258;2023-05-23T00:07:16;22.42;;;14.38;;
41755;SDS011;27435;48.480;9.258;2023-05-23T00:09:42;17.73;;;13.48;;
41755;SDS011;27435;48.480;9.258;2023-05-23T00:12:07;18.95;;;13.45;;
41755;SDS011;27435;48.480;9.258;2023-05-23T00:14:33;20.38;;;13.40;;
41755;SDS011;27435;48.480;9.258;2023-05-23T00:16:59;21.67;;;13.50;;
41755;SDS011;27435;48.480;9.258;2023-05-23T00:19:27;19.77;;;14.13;;
41755;SDS011;27435;48.480;9.258;2023-05-23T00:21:53;21.23;;;13.05;;
41755;SDS011;27435;48.480;9.258;2023-05-23T00:24:22;19.00;;;13.02;;
41755;SDS011;27435;48.480;9.258;2023-05-23T00:26:48;19.55;;;13.73;;
41755;SDS011;27435;48.480;9.258;2023-05-23T00:29:14;18.02;;;13.02;;
41755;SDS011;27435;48.480;9.258;2023-05-23T00:31:44;20.35;;;13.13;;
41755;SDS011;27435;48.480;9.258;2023-05-23T00:34:13;20.30;;;13.73;;
41755;SDS011;27435;48.480;9.258;2023-05-23T00:36:43;19.63;;;13.18;;
41755;SDS011;27435;48.480;9.258;2023-05-23T00:39:11;21.70;;;13.50;;
41755;SDS011;27435;48.480;9.258;2023-05-23T00:41:46;20.23;;;13.48;;
41755;SDS011;27435;48.480;9.258;2023-05-23T00:44:13;20.17;;;13.18;;
41755;SDS011;27435;48.480;9.258;2023-05-23T00:46:39;18.20;;;12.68;;
41755;SDS011;27435;48.480;9.258;2023-05-23T00:49:06;17.25;;;12.88;;
41755;SDS011;27435;48.480;9.258;2023-05-23T00:51:32;21.30;;;13.27;;
41755;SDS011;27435;48.480;9.258;2023-05-23T00:53:59;18.70;;;13.48;;
41755;SDS011;27435;48.480;9.258;2023-05-23T00:56:25;19.95;;;13.65;;
41755;SDS011;27435;48.480;9.258;2023-05-23T00:58:52;24.58;;;14.35;;
41755;SDS011;27435;48.480;9.258;2023-05-23T01:01:18;22.50;;;13.70;;
41755;SDS011;27435;48.480;9.258;2023-05-23T01:03:45;15.60;;;11.00;;
41755;SDS011;27435;48.480;9.258;2023-05-23T01:06:12;17.50;;;11.73;;
41755;SDS011;27435;48.480;9.258;2023-05-23T01:08:38;18.58;;;13.50;;
41755;SDS011;27435;48.480;9.258;2023-05-23T01:11:08;23.63;;;16.05;;
41755;SDS011;27435;48.480;9.258;2023-05-23T01:13:44;22.48;;;14.73;;
41755;SDS011;27435;48.480;9.258;2023-05-23T01:16:17;24.55;;;14.95;;
41755;SDS011;27435;48.480;9.258;2023-05-23T01:24:35;23.17;;;13.80;;
41755;SDS011;27435;48.480;9.258;2023-05-23T01:27:23;21.25;;;12.43;;
41755;SDS011;27435;48.480;9.258;2023-05-23T01:30:02;17.52;;;12.23;;
41755;SDS011;27435;48.480;9.258;2023-05-23T01:32:30;20.83;;;12.35;;
41755;SDS011;27435;48.480;9.258;2023-05-23T01:34:56;22.73;;;14.13;;
41755;SDS011;27435;48.480;9.258;2023-05-23T01:37:23;19.08;;;13.02;;
41755;SDS011;27435;48.480;9.258;2023-05-23T01:39:49;22.70;;;14.73;;
41755;SDS011;27435;48.480;9.258;2023-05-23T01:42:14;27.73;;;15.18;;
41755;SDS011;27435;48.480;9.258;2023-05-23T01:44:40;28.67;;;17.17;;
41755;SDS011;27435;48.480;9.258;2023-05-23T01:47:07;28.63;;;17.60;;
41755;SDS011;27435;48.480;9.258;2023-05-23T01:49:34;28.80;;;17.80;;
41755;SDS011;27435;48.480;9.258;2023-05-23T01:52:01;27.67;;;17.95;;
41755;SDS011;27435;48.480;9.258;2023-05-23T01:54:28;31.13;;;17.88;;
41755;SDS011;27435;48.480;9.258;2023-05-23T01:56:55;34.65;;;19.63;;
41755;SDS011;27435;48.480;9.258;2023-05-23T01:59:21;33.53;;;18.15;;
41755;SDS011;27435;48.480;9.258;2023-05-23T02:01:48;25.23;;;17.52;;
41755;SDS011;27435;48.480;9.258;2023-05-23T02:04:13;34.45;;;19.35;;
41755;SDS011;27435;48.480;9.258;2023-05-23T02:06:40;29.95;;;19.48;;
41755;SDS011;27435;48.480;9.258;2023-05-23T02:09:06;39.00;;;20.45;;
41755;SDS011;27435;48.480;9.258;2023-05-23T02:11:32;34.72;;;19.95;;
41755;SDS011;27435;48.480;9.258;2023-05-23T02:13:58;39.47;;;21.70;;
41755;SDS011;27435;48.480;9.258;2023-05-23T02:16:23;35.13;;;20.80;;
41755;SDS011;27435;48.480;9.258;2023-05-23T02:18:50;33.80;;;21.00;;
41755;SDS011;27435;48.480;9.258;2023-05-23T02:21:17;35.95;;;19.88;;
41755;SDS011;27435;48.480;9.258;2023-05-23T02:23:43;45.35;;;23.08;;
41755;SDS011;27435;48.480;9.258;2023-05-23T02:26:08;43.00;;;23.25;;
41755;SDS011;27435;48.480;9.258;2023-05-23T02:28:34;37.20;;;23.13;;
41755;SDS011;27435;48.480;9.258;2023-05-23T02:30:59;45.58;;;24.30;;
41755;SDS011;27435;48.480;9.258;2023-05-23T02:33:26;45.25;;;25.55;;
41755;SDS011;27435;48.480;9.258;2023-05-23T02:35:51;44.72;;;24.98;;
41755;SDS011;27435;48.480;9.258;2023-05-23T02:38:19;48.95;;;26.33;;
41755;SDS011;27435;48.480;9.258;2023-05-23T02:40:45;53.03;;;28.25;;
41755;SDS011;27435;48.480;9.258;2023-05-23T02:43:10;54.20;;;29.42;;
41755;SDS011;27435;48.480;9.258;2023-05-23T02:45:36;55.40;;;29.52;;
41755;SDS011;27435;48.480;9.258;2023-05-23T02:48:01;53.58;;;30.23;;
41755;SDS011;27435;48.480;9.258;2023-05-23T02:50:27;57.65;;;30.88;;
41755;SDS011;27435;48.480;9.258;2023-05-23T02:52:53;68.60;;;33.72;;
41755;SDS011;27435;48.480;9.258;2023-05-23T02:55:18;64.00;;;32.63;;
41755;SDS011;27435;48.480;9.258;2023-05-23T02:57:44;71.80;;;35.25;;
41755;SDS011;27435;48.480;9.258;2023-05-23T03:00:10;70.78;;;35.70;;
41755;SDS011;27435;48.480;9.258;2023-05-23T03:02:36;74.68;;;38.17;;
41755;SDS011;27435;48.480;9.258;2023-05-23T03:05:01;69.85;;;36.05;;
41755;SDS011;27435;48.480;9.258;2023-05-23T03:07:27;75.55;;;37.92;;
41755;SDS011;27435;48.480;9.258;2023-05-23T03:09:54;76.88;;;36.70;;
41755;SDS011;27435;48.480;9.258;2023-05-23T03:12:20;62.63;;;34.55;;
41755;SDS011;27435;48.480;9.258;2023-05-23T03:14:46;73.05;;;35.05;;
41755;SDS011;27435;48.480;9.258;2023-05-23T03:17:12;74.57;;;35.38;;
41755;SDS011;27435;48.480;9.258;2023-05-23T03:19:38;75.63;;;35.35;;
41755;SDS011;27435;48.480;9.258;2023-05-23T03:22:04;76.25;;;36.40;;
41755;SDS011;27435;48.480;9.258;2023-05-23T03:24:29;79.30;;;38.33;;
41755;SDS011;27435;48.480;9.258;2023-05-23T03:26:56;77.15;;;37.60;;
41755;SDS011;27435;48.480;9.258;2023-05-23T03:29:21;80.95;;;39.70;;
41755;SDS011;27435;48.480;9.258;2023-05-23T03:31:47;74.40;;;36.92;;
41755;SDS011;27435;48.480;9.258;2023-05-23T03:34:12;86.97;;;41.13;;
41755;SDS011;27435;48.480;9.258;2023-05-23T03:36:38;85.20;;;40.45;;
41755;SDS011;27435;48.480;9.258;2023-05-23T03:39:04;86.80;;;41.53;;
41755;SDS011;27435;48.480;9.258;2023-05-23T03:41:30;81.13;;;40.08;;
41755;SDS011;27435;48.480;9.258;2023-05-23T03:43:55;94.90;;;42.92;;
41755;SDS011;27435;48.480;9.258;2023-05-23T03:46:21;93.30;;;41.97;;
41755;SDS011;27435;48.480;9.258;2023-05-23T03:48:47;85.88;;;42.95;;
41755;SDS011;27435;48.480;9.258;2023-05-23T03:51:13;91.28;;;42.00;;
41755;SDS011;27435;48.480;9.258;2023-05-23T03:53:38;88.47;;;43.30;;
41755;SDS011;27435;48.480;9.258;2023-05-23T03:56:04;86.43;;;42.13;;
41755;SDS011;27435;48.480;9.258;2023-05-23T03:58:30;87.90;;;41.35;;
41755;SDS011;27435;48.480;9.258;2023-05-23T04:00:56;90.25;;;43.05;;
41755;SDS011;27435;48.480;9.258;2023-05-23T04:03:21;82.25;;;39.70;;
41755;SDS011;27435;48.480;9.258;2023-05-23T04:05:47;84.93;;;40.67;;
41755;SDS011;27435;48.480;9.258;2023-05-23T04:08:13;82.90;;;40.13;;
41755;SDS011;27435;48.480;9.258;2023-05-23T04:10:39;81.63;;;40.85;;
41755;SDS011;27435;48.480;9.258;2023-05-23T04:13:05;77.20;;;37.80;;
41755;SDS011;27435;48.480;9.258;2023-05-23T04:15:31;76.38;;;38.65;;
41755;SDS011;27435;48.480;9.258;2023-05-23T04:17:58;76.72;;;37.10;;
41755;SDS011;27435;48.480;9.258;2023-05-23T04:20:24;82.63;;;37.85;;
41755;SDS011;27435;48.480;9.258;2023-05-23T04:22:50;75.55;;;38.33;;
41755;SDS011;27435;48.480;9.258;2023-05-23T04:25:15;73.18;;;36.80;;
41755;SDS011;27435;48.480;9.258;2023-05-23T04:27:42;67.35;;;33.90;;
41755;SDS011;27435;48.480;9.258;2023-05-23T04:30:08;63.97;;;34.03;;
41755;SDS011;27435;48.480;9.258;2023-05-23T04:32:35;67.40;;;35.45;;
41755;SDS011;27435;48.480;9.258;2023-05-23T04:35:02;69.35;;;36.65;;
41755;SDS011;27435;48.480;9.258;2023-05-23T04:37:28;67.47;;;36.55;;
41755;SDS011;27435;48.480;9.258;2023-05-23T04:39:56;67.50;;;34.38;;
41755;SDS011;27435;48.480;9.258;2023-05-23T04:42:23;73.80;;;34.00;;
41755;SDS011;27435;48.480;9.258;2023-05-23T04:44:49;68.32;;;37.03;;
41755;SDS011;27435;48.480;9.258;2023-05-23T04:47:16;65.72;;;34.40;;
41755;SDS011;27435;48.480;9.258;2023-05-23T04:49:43;67.10;;;35.00;;
41755;SDS011;27435;48.480;9.258;2023-05-23T04:52:09;66.22;;;34.50;;
41755;SDS011;27435;48.480;9.258;2023-05-23T04:54:34;62.72;;;33.38;;
41755;SDS011;27435;48.480;9.258;2023-05-23T04:57:01;65.82;;;35.08;;
41755;SDS011;27435;48.480;9.258;2023-05-23T04:59:27;66.35;;;33.78;;
41755;SDS011;27435;48.480;9.258;2023-05-23T05:01:52;67.22;;;34.78;;
41755;SDS011;27435;48.480;9.258;2023-05-23T05:04:18;68.18;;;36.22;;
41755;SDS011;27435;48.480;9.258;2023-05-23T05:06:44;65.55;;;33.60;;
41755;SDS011;27435;48.480;9.258;2023-05-23T05:09:12;66.30;;;33.45;;
41755;SDS011;27435;48.480;9.258;2023-05-23T05:11:37;66.25;;;33.80;;
41755;SDS011;27435;48.480;9.258;2023-05-23T05:14:03;73.80;;;34.90;;
41755;SDS011;27435;48.480;9.258;2023-05-23T05:16:29;65.72;;;35.30;;
41755;SDS011;27435;48.480;9.258;2023-05-23T05:18:54;72.38;;;35.42;;
41755;SDS011;27435;48.480;9.258;2023-05-23T05:21:21;68.40;;;36.40;;
41755;SDS011;27435;48.480;9.258;2023-05-23T05:23:46;64.32;;;35.63;;
41755;SDS011;27435;48.480;9.258;2023-05-23T05:26:12;71.75;;;35.25;;
41755;SDS011;27435;48.480;9.258;2023-05-23T05:28:38;65.78;;;35.08;;
41755;SDS011;27435;48.480;9.258;2023-05-23T05:31:03;69.88;;;35.72;;
41755;SDS011;27435;48.480;9.258;2023-05-23T05:33:29;66.03;;;36.95;;
41755;SDS011;27435;48.480;9.258;2023-05-23T05:36:00;66.40;;;36.22;;
41755;SDS011;27435;48.480;9.258;2023-05-23T05:38:26;71.97;;;36.22;;
41755;SDS011;27435;48.480;9.258;2023-05-23T05:40:52;76.72;;;36.33;;
41755;SDS011;27435;48.480;9.258;2023-05-23T05:43:17;70.72;;;34.33;;
41755;SDS011;27435;48.480;9.258;2023-05-23T05:45:43;71.25;;;35.20;;
41755;SDS011;27435;48.480;9.258;2023-05-23T05:48:09;71.60;;;37.17;;
41755;SDS011;27435;48.480;9.258;2023-05-23T05:50:35;60.42;;;34.65;;
41755;SDS011;27435;48.480;9.258;2023-05-23T05:53:01;70.38;;;36.58;;
41755;SDS011;27435;48.480;9.258;2023-05-23T05:55:27;67.30;;;35.30;;
41755;SDS011;27435;48.480;9.258;2023-05-23T05:57:53;74.82;;;40.90;;
41755;SDS011;27435;48.480;9.258;2023-05-23T06:00:19;69.53;;;37.15;;
41755;SDS011;27435;48.480;9.258;2023-05-23T06:02:45;72.95;;;37.15;;
41755;SDS011;27435;48.480;9.258;2023-05-23T06:05:11;66.35;;;35.28;;
41755;SDS011;27435;48.480;9.258;2023-05-23T06:07:40;69.50;;;36.50;;
41755;SDS011;27435;48.480;9.258;2023-05-23T06:10:07;67.32;;;38.97;;
41755;SDS011;27435;48.480;9.258;2023-05-23T06:12:33;76.68;;;36.33;;
41755;SDS011;27435;48.480;9.258;2023-05-23T06:14:59;74.18;;;38.75;;
41755;SDS011;27435;48.480;9.258;2023-05-23T06:17:26;70.40;;;36.55;;
41755;SDS011;27435;48.480;9.258;2023-05-23T06:19:52;70.95;;;37.92;;
41755;SDS011;27435;48.480;9.258;2023-05-23T06:22:18;70.53;;;37.67;;
41755;SDS011;27435;48.480;9.258;2023-05-23T06:24:43;67.20;;;36.50;;
41755;SDS011;27435;48.480;9.258;2023-05-23T06:27:09;64.20;;;36.58;;
41755;SDS011;27435;48.480;9.258;2023-05-23T06:29:35;64.32;;;37.67;;
41755;SDS011;27435;48.480;9.258;2023-05-23T06:32:01;72.30;;;38.72;;
41755;SDS011;27435;48.480;9.258;2023-05-23T06:34:26;70.30;;;38.72;;
41755;SDS011;27435;48.480;9.258;2023-05-23T06:36:52;72.35;;;39.00;;
41755;SDS011;27435;48.480;9.258;2023-05-23T06:39:18;74.43;;;39.85;;
41755;SDS011;27435;48.480;9.258;2023-05-23T06:41:45;68.93;;;38.80;;
41755;SDS011;27435;48.480;9.258;2023-05-23T06:44:11;70.80;;;40.35;;
41755;SDS011;27435;48.480;9.258;2023-05-23T06:46:37;73.75;;;38.80;;
41755;SDS011;27435;48.480;9.258;2023-05-23T06:49:02;71.63;;;39.15;;
41755;SDS011;27435;48.480;9.258;2023-05-23T06:51:28;67.03;;;39.17;;
41755;SDS011;27435;48.480;9.258;2023-05-23T06:53:53;69.53;;;40.53;;
41755;SDS011;27435;48.480;9.258;2023-05-23T06:56:21;67.88;;;39.08;;
41755;SDS011;27435;48.480;9.258;2023-05-23T06:58:47;71.25;;;41.47;;
41755;SDS011;27435;48.480;9.258;2023-05-23T07:01:13;71.07;;;40.63;;
41755;SDS011;27435;48.480;9.258;2023-05-23T07:03:38;65.65;;;40.30;;
41755;SDS011;27435;48.480;9.258;2023-05-23T07:06:05;69.20;;;41.40;;
41755;SDS011;27435;48.480;9.258;2023-05-23T07:08:32;67.65;;;40.58;;
41755;SDS011;27435;48.480;9.258;2023-05-23T07:10:57;65.78;;;38.80;;
41755;SDS011;27435;48.480;9.258;2023-05-23T07:13:23;62.33;;;39.42;;
41755;SDS011;27435;48.480;9.258;2023-05-23T07:15:48;58.80;;;38.10;;
41755;SDS011;27435;48.480;9.258;2023-05-23T07:18:14;58.33;;;37.30;;
41755;SDS011;27435;48.480;9.258;2023-05-23T07:20:40;62.22;;;37.30;;
41755;SDS011;27435;48.480;9.258;2023-05-23T07:23:05;58.75;;;36.95;;
41755;SDS011;27435;48.480;9.258;2023-05-23T07:25:31;61.17;;;39.35;;
41755;SDS011;27435;48.480;9.258;2023-05-23T07:27:56;60.80;;;38.17;;
41755;SDS011;27435;48.480;9.258;2023-05-23T07:30:22;63.70;;;36.42;;
41755;SDS011;27435;48.480;9.258;2023-05-23T07:32:48;62.67;;;39.20;;
41755;SDS011;27435;48.480;9.258;2023-05-23T07:35:14;62.70;;;37.88;;
41755;SDS011;27435;48.480;9.258;2023-05-23T07:37:40;59.83;;;38.30;;
41755;SDS011;27435;48.480;9.258;2023-05-23T07:40:06;59.47;;;37.88;;
41755;SDS011;27435;48.480;9.258;2023-05-23T07:42:35;60.55;;;38.53;;
41755;SDS011;27435;48.480;9.258;2023-05-23T07:45:01;58.60;;;38.22;;
41755;SDS011;27435;48.480;9.258;2023-05-23T07:47:27;67.60;;;38.55;;
41755;SDS011;27435;48.480;9.258;2023-05-23T07:49:53;62.58;;;37.70;;
41755;SDS011;27435;48.480;9.258;2023-05-23T07:52:18;70.22;;;38.22;;
41755;SDS011;27435;48.480;9.258;2023-05-23T07:54:44;58.45;;;36.90;;
41755;SDS011;27435;48.480;9.258;2023-05-23T07:57:10;59.40;;;39.47;;
41755;SDS011;27435;48.480;9.258;2023-05-23T07:59:36;66.63;;;39.17;;
41755;SDS011;27435;48.480;9.258;2023-05-23T08:02:02;64.15;;;39.45;;
41755;SDS011;27435;48.480;9.258;2023-05-23T08:04:28;62.58;;;39.47;;
41755;SDS011;27435;48.480;9.258;2023-05-23T08:06:54;58.50;;;38.53;;
41755;SDS011;27435;48.480;9.258;2023-05-23T08:09:21;58.58;;;38.90;;
41755;SDS011;27435;48.480;9.258;2023-05-23T08:11:47;61.33;;;36.92;;
41755;SDS011;27435;48.480;9.258;2023-05-23T08:14:13;60.85;;;38.20;;
41755;SDS011;27435;48.480;9.258;2023-05-23T08:16:38;77.32;;;40.10;;
41755;SDS011;27435;48.480;9.258;2023-05-23T08:19:04;66.70;;;37.95;;
41755;SDS011;27435;48.480;9.258;2023-05-23T08:21:30;58.33;;;37.38;;
41755;SDS011;27435;48.480;9.258;2023-05-23T08:23:56;59.65;;;36.70;;
41755;SDS011;27435;48.480;9.258;2023-05-23T08:26:22;58.10;;;35.80;;
41755;SDS011;27435;48.480;9.258;2023-05-23T08:28:48;66.38;;;41.47;;
41755;SDS011;27435;48.480;9.258;2023-05-23T08:31:13;68.35;;;41.80;;
41755;SDS011;27435;48.480;9.258;2023-05-23T08:33:39;65.70;;;41.80;;
41755;SDS011;27435;48.480;9.258;2023-05-23T08:36:04;63.08;;;40.97;;
41755;SDS011;27435;48.480;9.258;2023-05-23T08:38:30;65.45;;;41.22;;
41755;SDS011;27435;48.480;9.258;2023-05-23T08:40:56;60.35;;;39.08;;
41755;SDS011;27435;48.480;9.258;2023-05-23T08:43:25;66.07;;;40.85;;
41755;SDS011;27435;48.480;9.258;2023-05-23T08:45:51;73.05;;;42.10;;
41755;SDS011;27435;48.480;9.258;2023-05-23T08:48:18;72.50;;;42.30;;
41755;SDS011;27435;48.480;9.258;2023-05-23T08:50:45;61.85;;;40.72;;
41755;SDS011;27435;48.480;9.258;2023-05-23T08:53:12;61.42;;;41.60;;
41755;SDS011;27435;48.480;9.258;2023-05-23T08:55:44;63.65;;;41.55;;
41755;SDS011;27435;48.480;9.258;2023-05-23T08:58:12;58.63;;;39.78;;
41755;SDS011;27435;48.480;9.258;2023-05-23T09:00:38;63.28;;;41.25;;
41755;SDS011;27435;48.480;9.258;2023-05-23T09:03:05;64.55;;;39.60;;
41755;SDS011;27435;48.480;9.258;2023-05-23T09:05:31;56.13;;;37.83;;
41755;SDS011;27435;48.480;9.258;2023-05-23T09:07:56;58.33;;;36.83;;
41755;SDS011;27435;48.480;9.258;2023-05-23T09:10:22;60.60;;;36.53;;
41755;SDS011;27435;48.480;9.258;2023-05-23T09:12:48;52.78;;;34.90;;
41755;SDS011;27435;48.480;9.258;2023-05-23T09:15:14;53.35;;;35.00;;
41755;SDS011;27435;48.480;9.258;2023-05-23T09:17:41;49.25;;;32.15;;
41755;SDS011;27435;48.480;9.258;2023-05-23T09:20:13;61.42;;;37.70;;
41755;SDS011;27435;48.480;9.258;2023-05-23T09:22:40;53.55;;;36.08;;
41755;SDS011;27435;48.480;9.258;2023-05-23T09:25:11;53.45;;;33.97;;
41755;SDS011;27435;48.480;9.258;2023-05-23T09:27:37;51.55;;;35.22;;
41755;SDS011;27435;48.480;9.258;2023-05-23T09:30:04;49.80;;;33.22;;
41755;SDS011;27435;48.480;9.258;2023-05-23T09:32:31;49.45;;;32.30;;
41755;SDS011;27435;48.480;9.258;2023-05-23T09:34:57;49.47;;;32.40;;
41755;SDS011;27435;48.480;9.258;2023-05-23T09:37:31;53.80;;;31.45;;
41755;SDS011;27435;48.480;9.258;2023-05-23T09:40:08;52.13;;;33.45;;
41755;SDS011;27435;48.480;9.258;2023-05-23T09:42:35;46.08;;;31.67;;
41755;SDS011;27435;48.480;9.258;2023-05-23T09:45:13;47.65;;;31.73;;
41755;SDS011;27435;48.480;9.258;2023-05-23T09:47:49;48.15;;;31.38;;
41755;SDS011;27435;48.480;9.258;2023-05-23T09:50:16;48.28;;;30.15;;
41755;SDS011;27435;48.480;9.258;2023-05-23T09:52:41;45.38;;;27.70;;
41755;SDS011;27435;48.480;9.258;2023-05-23T09:55:07;42.60;;;28.75;;
41755;SDS011;27435;48.480;9.258;2023-05-23T09:57:34;45.85;;;29.85;;
41755;SDS011;27435;48.480;9.258;2023-05-23T10:00:02;43.35;;;28.48;;
41755;SDS011;27435;48.480;9.258;2023-05-23T10:05:33;48.35;;;29.50;;
41755;SDS011;27435;48.480;9.258;2023-05-23T10:08:04;47.55;;;30.10;;
41755;SDS011;27435;48.480;9.258;2023-05-23T10:10:34;44.22;;;27.92;;
41755;SDS011;27435;48.480;9.258;2023-05-23T10:13:19;41.30;;;26.85;;
41755;SDS011;27435;48.480;9.258;2023-05-23T10:15:45;45.88;;;28.42;;
41755;SDS011;27435;48.480;9.258;2023-05-23T10:18:17;35.58;;;25.45;;
41755;SDS011;27435;48.480;9.258;2023-05-23T10:20:48;39.53;;;26.33;;
41755;SDS011;27435;48.480;9.258;2023-05-23T10:23:16;42.53;;;26.35;;
41755;SDS011;27435;48.480;9.258;2023-05-23T10:25:43;39.63;;;24.83;;
41755;SDS011;27435;48.480;9.258;2023-05-23T10:28:10;40.47;;;25.92;;
41755;SDS011;27435;48.480;9.258;2023-05-23T10:30:36;40.65;;;25.25;;
41755;SDS011;27435;48.480;9.258;2023-05-23T10:33:02;39.88;;;25.60;;
41755;SDS011;27435;48.480;9.258;2023-05-23T10:41:10;37.20;;;23.83;;
41755;SDS011;27435;48.480;9.258;2023-05-23T10:47:03;36.03;;;23.48;;
41755;SDS011;27435;48.480;9.258;2023-05-23T10:52:11;38.22;;;25.08;;
41755;SDS011;27435;48.480;9.258;2023-05-23T10:57:15;38.75;;;22.33;;
41755;SDS011;27435;48.480;9.258;2023-05-23T10:59:43;36.10;;;23.83;;
41755;SDS011;27435;48.480;9.258;2023-05-23T11:02:15;35.70;;;24.27;;
41755;SDS011;27435;48.480;9.258;2023-05-23T11:04:43;36.92;;;24.08;;
41755;SDS011;27435;48.480;9.258;2023-05-23T11:07:28;33.13;;;22.45;;
41755;SDS011;27435;48.480;9.258;2023-05-23T11:10:07;33.97;;;22.40;;
41755;SDS011;27435;48.480;9.258;2023-05-23T11:12:41;32.15;;;21.35;;
41755;SDS011;27435;48.480;9.258;2023-05-23T11:17:55;30.30;;;20.75;;
41755;SDS011;27435;48.480;9.258;2023-05-23T11:20:24;29.35;;;20.83;;
41755;SDS011;27435;48.480;9.258;2023-05-23T11:23:01;28.92;;;20.38;;
41755;SDS011;27435;48.480;9.258;2023-05-23T11:25:38;27.77;;;19.30;;
41755;SDS011;27435;48.480;9.258;2023-05-23T11:28:08;29.88;;;19.35;;
41755;SDS011;27435;48.480;9.258;2023-05-23T11:30:35;30.92;;;18.90;;
41755;SDS011;27435;48.480;9.258;2023-05-23T11:33:04;25.45;;;18.77;;
41755;SDS011;27435;48.480;9.258;2023-05-23T11:35:34;29.42;;;18.65;;
41755;SDS011;27435;48.480;9.258;2023-05-23T11:38:01;28.98;;;18.60;;
41755;SDS011;27435;48.480;9.258;2023-05-23T11:42:58;25.92;;;19.63;;
41755;SDS011;27435;48.480;9.258;2023-05-23T11:45:26;24.40;;;18.40;;
41755;SDS011;27435;48.480;9.258;2023-05-23T11:47:53;25.05;;;18.83;;
41755;SDS011;27435;48.480;9.258;2023-05-23T11:50:19;28.08;;;19.10;;
41755;SDS011;27435;48.480;9.258;2023-05-23T11:52:46;23.83;;;17.92;;
41755;SDS011;27435;48.480;9.258;2023-05-23T11:55:16;29.20;;;19.00;;
41755;SDS011;27435;48.480;9.258;2023-05-23T11:57:43;27.42;;;18.35;;
41755;SDS011;27435;48.480;9.258;2023-05-23T12:00:09;26.20;;;18.67;;
41755;SDS011;27435;48.480;9.258;2023-05-23T12:02:38;26.58;;;18.70;;
41755;SDS011;27435;48.480;9.258;2023-05-23T12:05:08;26.00;;;17.52;;
41755;SDS011;27435;48.480;9.258;2023-05-23T12:07:35;25.33;;;17.80;;
41755;SDS011;27435;48.480;9.258;2023-05-23T12:10:04;23.52;;;17.90;;
41755;SDS011;27435;48.480;9.258;2023-05-23T12:12:30;26.45;;;16.77;;
41755;SDS011;27435;48.480;9.258;2023-05-23T12:14:56;28.75;;;17.10;;
41755;SDS011;27435;48.480;9.258;2023-05-23T12:17:23;21.15;;;15.27;;
41755;SDS011;27435;48.480;9.258;2023-05-23T12:19:49;20.70;;;15.07;;
41755;SDS011;27435;48.480;9.258;2023-05-23T12:22:21;21.73;;;14.68;;
41755;SDS011;27435;48.480;9.258;2023-05-23T12:24:52;21.63;;;13.52;;
41755;SDS011;27435;48.480;9.258;2023-05-23T12:27:28;19.77;;;13.00;;
41755;SDS011;27435;48.480;9.258;2023-05-23T12:30:08;17.95;;;13.57;;
41755;SDS011;27435;48.480;9.258;2023-05-23T12:32:38;14.32;;;10.82;;
41755;SDS011;27435;48.480;9.258;2023-05-23T12:35:05;21.58;;;12.50;;
41755;SDS011;27435;48.480;9.258;2023-05-23T12:37:32;17.10;;;12.15;;
41755;SDS011;27435;48.480;9.258;2023-05-23T12:39:57;16.42;;;11.60;;
41755;SDS011;27435;48.480;9.258;2023-05-23T12:42:42;17.80;;;11.43;;
41755;SDS011;27435;48.480;9.258;2023-05-23T12:47:37;14.60;;;10.82;;
41755;SDS011;27435;48.480;9.258;2023-05-23T12:50:03;17.40;;;10.30;;
41755;SDS011;27435;48.480;9.258;2023-05-23T12:52:29;14.65;;;10.27;;
41755;SDS011;27435;48.480;9.258;2023-05-23T12:54:55;12.95;;;9.50;;
41755;SDS011;27435;48.480;9.258;2023-05-23T12:57:20;15.63;;;9.38;;
41755;SDS011;27435;48.480;9.258;2023-05-23T12:59:46;15.25;;;9.45;;
41755;SDS011;27435;48.480;9.258;2023-05-23T13:02:12;12.57;;;9.32;;
41755;SDS011;27435;48.480;9.258;2023-05-23T13:04:37;18.58;;;10.32;;
41755;SDS011;27435;48.480;9.258;2023-05-23T13:07:03;16.63;;;9.73;;
41755;SDS011;27435;48.480;9.258;2023-05-23T13:09:28;13.20;;;8.75;;
41755;SDS011;27435;48.480;9.258;2023-05-23T13:11:54;10.52;;;8.40;;
41755;SDS011;27435;48.480;9.258;2023-05-23T13:14:20;15.88;;;9.25;;
41755;SDS011;27435;48.480;9.258;2023-05-23T13:16:45;14.00;;;8.63;;
41755;SDS011;27435;48.480;9.258;2023-05-23T13:19:11;13.30;;;9.02;;
41755;SDS011;27435;48.480;9.258;2023-05-23T13:21:36;13.43;;;9.30;;
41755;SDS011;27435;48.480;9.258;2023-05-23T13:24:02;14.77;;;9.68;;
41755;SDS011;27435;48.480;9.258;2023-05-23T13:26:28;12.88;;;8.77;;
41755;SDS011;27435;48.480;9.258;2023-05-23T13:28:53;14.05;;;9.20;;
41755;SDS011;27435;48.480;9.258;2023-05-23T13:31:19;15.07;;;9.27;;
41755;SDS011;27435;48.480;9.258;2023-05-23T13:33:45;10.82;;;7.88;;
41755;SDS011;27435;48.480;9.258;2023-05-23T13:36:11;12.07;;;7.93;;
41755;SDS011;27435;48.480;9.258;2023-05-23T13:38:36;12.80;;;8.45;;
41755;SDS011;27435;48.480;9.258;2023-05-23T13:41:02;11.32;;;7.90;;
41755;SDS011;27435;48.480;9.258;2023-05-23T13:43:27;13.38;;;7.60;;
41755;SDS011;27435;48.480;9.258;2023-05-23T13:45:53;10.40;;;7.25;;
41755;SDS011;27435;48.480;9.258;2023-05-23T13:48:18;9.80;;;7.43;;
41755;SDS011;27435;48.480;9.258;2023-05-23T13:50:45;9.63;;;7.10;;
41755;SDS011;27435;48.480;9.258;2023-05-23T13:53:10;9.07;;;6.10;;
41755;SDS011;27435;48.480;9.258;2023-05-23T13:55:40;8.35;;;5.93;;
41755;SDS011;27435;48.480;9.258;2023-05-23T13:58:06;10.10;;;5.85;;
41755;SDS011;27435;48.480;9.258;2023-05-23T14:00:32;7.60;;;5.43;;
41755;SDS011;27435;48.480;9.258;2023-05-23T14:02:58;9.20;;;6.00;;
41755;SDS011;27435;48.480;9.258;2023-05-23T14:05:24;8.68;;;5.55;;
41755;SDS011;27435;48.480;9.258;2023-05-23T14:07:49;7.18;;;5.72;;
41755;SDS011;27435;48.480;9.258;2023-05-23T14:10:15;10.20;;;5.78;;
41755;SDS011;27435;48.480;9.258;2023-05-23T14:12:41;6.95;;;5.18;;
41755;SDS011;27435;48.480;9.258;2023-05-23T14:15:07;8.13;;;5.40;;
41755;SDS011;27435;48.480;9.258;2023-05-23T14:17:34;8.55;;;5.53;;
41755;SDS011;27435;48.480;9.258;2023-05-23T14:19:59;7.90;;;5.68;;
41755;SDS011;27435;48.480;9.258;2023-05-23T14:22:25;7.30;;;5.25;;
41755;SDS011;27435;48.480;9.258;2023-05-23T14:24:51;8.27;;;4.90;;
41755;SDS011;27435;48.480;9.258;2023-05-23T14:27:17;6.80;;;4.63;;
41755;SDS011;27435;48.480;9.258;2023-05-23T14:29:43;7.47;;;4.22;;
41755;SDS011;27435;48.480;9.258;2023-05-23T14:32:10;6.22;;;4.35;;
41755;SDS011;27435;48.480;9.258;2023-05-23T14:34:36;5.38;;;4.20;;
41755;SDS011;27435;48.480;9.258;2023-05-23T14:37:02;10.93;;;4.32;;
41755;SDS011;27435;48.480;9.258;2023-05-23T14:39:28;6.25;;;4.28;;
41755;SDS011;27435;48.480;9.258;2023-05-23T14:41:53;5.60;;;4.07;;
41755;SDS011;27435;48.480;9.258;2023-05-23T14:44:19;8.45;;;4.60;;
41755;SDS011;27435;48.480;9.258;2023-05-23T14:46:45;7.82;;;3.92;;
41755;SDS011;27435;48.480;9.258;2023-05-23T14:49:14;8.45;;;4.38;;
41755;SDS011;27435;48.480;9.258;2023-05-23T14:51:42;11.25;;;4.45;;
41755;SDS011;27435;48.480;9.258;2023-05-23T14:54:08;8.50;;;4.35;;